Huvudsida
METAR-TAF:

METAR-TAF

Flygplatser :

Rio Branco flygplats

Rio Branco, Acre, Brasilien

latitud: 10-00S, longitud: 067-48W, höjd: 142 m

Aktuellt väderrapport

Denna rapport gjordes för 51 minuter sedan, klockan 09:00 UTC
Stilla vind
Temperatur 20°C
Fuktighet 94%
Tryck 1011 hPa
Sikt 10 km eller mer
Inga moln under 1 500 m eller inga cumulonimbus

METAR: SBRB 270900Z 00000KT CAVOK 20/19 Q1011

Tid: 04:51 (09:51 UTC)

Väderprognos

Denna rapport gjordes för 5 timmar och 51 minuter sedan, klockan 04:00 UTC
Prognos gäller från 27 kl. 06 UTC till 27 kl. 18 UTC
Vind 5 kt från nord/nordväst
Blir
mellan 2 och UTC
Sikt 10 km eller mer
Spridda moln på en höjd av 500 ft
Blir
från 27 kl. 13 UTC till 27 kl. 15 UTC
Vind 5 kt från syd
Spridda moln på en höjd av 1000 ft

TAF: SBRB 270400Z 2706/2718 33005KT CAVOKTN19/2711Z TX23/2718Z BECMG 2 710/2712 9999 SCT005 BECMG 2713/2715 18005KT SCT010 RMK PCQ

Aktuella väderrapporter och prognoser från 4000 flygplatser (METAR- och TAF-rapporter).

De tillgängliga stationerna syns som gula och röda prickar på kartan.

För musen över prickarna för att se namnen på stationerna.

Klicka sedan för att få väderrapporter och prognoser.

För att ändra kartan: Klicka på de gröna knapparna med ett svart kors på för att zooma in; den gröna knappen med ett streck på för att zooma ut; eller på de gröna pilarna för angränsande kartor.


METAR-TAF: